Pagrindinis puslapis
METAR-TAF:

METAR-TAF

Oro uostai :

Lubbock, Teksasas, Jungtinės Amerikos Valstijos

platuma: 33-40-03N, ilguma: 101-49-17W, Aukštis: 1000 m

Dabartinis oras

Ataskaita buvo paskelbta 20 minutes, ne 10:53 UTC
Ramus vėjas
Temperatūra 25°C
Drėgmė 36%
Slėgis 1015 hPa
Matomumas: 16.1 km
Mažai debesys ne aukštis 17000 ft
Išsisklaidę debesys ne aukštis 22000 ft
Su prošvaistėmis ne aukštis 25000 ft

METAR: KLBB 151053Z 00000KT 10SM FEW170 SCT220 BKN250 25/09 A2996 RMK AO2 SLP077 BKN LYR THN T02500089

Laikas: 06:13 (11:13 UTC)

Prognozė

Ataskaita buvo paskelbta 5 valandos ir 30 minutes, ne 05:43 UTC
Prognozė galioja nuo 15 metu 06 UTC su 16 metu 06 UTC
Vėjas 9 kt iš Pietvakarių
Matomumas: 10 km
Su prošvaistėmis ne aukštis 15000 ft
Nuo 15 metu 1500 UTC
Vėjas 8 kt iš Rytų/Šiaurės Rytų
Matomumas: 10 km
Su prošvaistėmis ne aukštis 15000 ft

TAF: KLBB 150543Z 1506/1606 23009KT P6SM BKN150 FM151500 07008KT P6SM BKN150

Orai ataskaitas ir orų prognozės (METAR, TAF).

turimą stotys yra geltonos ir raudonos taškus žemėlapyje.

Perkelti pele per norėdami pamatyti stoties vardą.

Tada spustelėkite, norėdami matyti oro stebėjimo ir prognozės.

Norėdami pakeisti žemėlapį: spustelėkite ant žalios mygtukų su juodo kryžiaus žemyn,; žalią mygtuką su brūkšneliu, jei norite nutolinti; arba žalių rodyklių gretimoms žemėlapius.


METAR-TAF: